Eagleville, Pennsylvania
Current Conditions -  °F | °C
As of 1:15 AM on Monday 22 Dec 2014 (Local Time) from KLOM Reporting Station
Broken Clouds Broken Clouds  
Wind Chill: 28°   Ceiling: 2400
Heat Index: 28°   Visibility: 7mi
Dew Point: 27°   Wind: 0mph
Humidity: 93%   Direction: NA
Pressure: 30.31"   Gusts: NA
Location:  40.16°N, 75.41°W
Report Text: KLOM 220615Z AUTO 00000KT 7SM BKN024 M02/M03 A3031 RMK AO1
Loading
Personal Weather Stations






























Interactive Weather Map New forecast layout! Learn more

10-Day Weather Forecast

Advertisements
Track Severe Weather on mobile